createdAt,value
2019-01-11T00:02:00.532Z,0.70
2019-01-11T00:04:31.235Z,0.70
2019-01-11T00:07:01.703Z,0.70
2019-01-11T00:09:32.281Z,0.80
2019-01-11T00:12:02.297Z,0.60
2019-01-11T00:14:32.753Z,0.50
2019-01-11T00:17:02.757Z,0.40
2019-01-11T00:19:36.216Z,0.40
2019-01-11T00:22:06.184Z,0.30
2019-01-11T00:24:36.386Z,0.30
2019-01-11T00:27:06.834Z,0.40
2019-01-11T00:29:36.730Z,0.40
2019-01-11T00:32:06.824Z,0.40
2019-01-11T00:34:36.802Z,0.40
2019-01-11T00:37:06.890Z,0.40
2019-01-11T00:39:37.234Z,0.40
2019-01-11T00:42:07.623Z,0.40
2019-01-11T00:44:38.350Z,0.40
2019-01-11T00:47:08.587Z,0.40
2019-01-11T00:49:38.810Z,0.40
2019-01-11T00:52:08.959Z,0.40
2019-01-11T00:54:39.056Z,0.40
2019-01-11T00:57:09.224Z,0.40
2019-01-11T00:59:39.473Z,0.30
2019-01-11T01:02:09.844Z,0.20
2019-01-11T01:04:40.124Z,0.20
2019-01-11T01:07:10.566Z,0.20
2019-01-11T01:09:40.563Z,0.20
2019-01-11T01:12:12.640Z,0.20
2019-01-11T01:14:42.999Z,0.20
2019-01-11T01:17:13.215Z,0.20
2019-01-11T01:19:43.488Z,0.20
2019-01-11T01:22:13.897Z,0.20
2019-01-11T01:24:48.558Z,0.20
2019-01-11T01:27:22.621Z,0.20
2019-01-11T01:29:55.277Z,0.30
2019-01-11T01:32:25.262Z,0.30
2019-01-11T01:34:55.543Z,0.40
2019-01-11T01:37:26.100Z,0.40
2019-01-11T01:39:58.530Z,0.40
2019-01-11T01:42:29.000Z,0.40
2019-01-11T01:44:59.212Z,0.50
2019-01-11T01:47:29.432Z,0.50
2019-01-11T01:49:59.494Z,0.50
2019-01-11T01:52:29.878Z,0.40
2019-01-11T01:55:00.185Z,0.40
2019-01-11T01:57:30.743Z,0.40
2019-01-11T02:00:01.004Z,0.40
2019-01-11T02:02:31.592Z,0.40
2019-01-11T02:05:03.757Z,0.50
2019-01-11T02:07:34.059Z,0.50
2019-01-11T02:10:06.654Z,0.50
2019-01-11T02:12:36.872Z,0.40
2019-01-11T02:15:08.829Z,0.30
2019-01-11T02:17:39.607Z,0.20
2019-01-11T02:20:13.964Z,0.30
2019-01-11T02:22:44.349Z,0.30
2019-01-11T02:25:15.844Z,0.30
2019-01-11T02:27:46.173Z,0.20
2019-01-11T02:30:24.135Z,0.20
2019-01-11T02:32:57.368Z,0.20
2019-01-11T02:35:27.575Z,0.10
2019-01-11T02:37:57.734Z,0.10
2019-01-11T02:40:27.844Z,0.10
2019-01-11T02:42:58.166Z,0.10
2019-01-11T02:45:28.217Z,0.10
2019-01-11T02:47:58.282Z,0.10
2019-01-11T02:50:28.451Z,0.10
2019-01-11T02:52:58.644Z,0.10
2019-01-11T02:55:28.785Z,0.10
2019-01-11T02:57:59.389Z,0.10
2019-01-11T03:00:29.666Z,0.20
2019-01-11T03:02:59.809Z,0.20
2019-01-11T03:05:29.670Z,0.20
2019-01-11T03:07:59.620Z,0.30
2019-01-11T03:10:29.709Z,0.30
2019-01-11T03:12:59.832Z,0.40
2019-01-11T03:15:29.807Z,0.40
2019-01-11T03:17:59.888Z,0.40
2019-01-11T03:20:29.980Z,0.40
2019-01-11T03:23:00.000Z,0.30
2019-01-11T03:25:29.995Z,0.30
2019-01-11T03:27:59.824Z,0.20
2019-01-11T03:30:29.806Z,0.20
2019-01-11T03:32:59.676Z,0.30
2019-01-11T03:35:29.561Z,0.30
2019-01-11T03:37:59.395Z,0.30
2019-01-11T03:40:29.320Z,0.30
2019-01-11T03:42:59.521Z,0.30
2019-01-11T03:45:30.109Z,0.30
2019-01-11T03:48:00.234Z,0.30
2019-01-11T03:50:30.211Z,0.30
2019-01-11T03:53:00.113Z,0.30
2019-01-11T03:55:30.153Z,0.30
2019-01-11T03:57:59.997Z,0.40
2019-01-11T04:00:30.097Z,0.40
2019-01-11T04:03:00.223Z,0.40
2019-01-11T04:05:31.062Z,0.40
2019-01-11T04:08:01.035Z,0.40
2019-01-11T04:10:31.401Z,0.40
2019-01-11T04:13:01.480Z,0.40
2019-01-11T04:15:31.888Z,0.40
2019-01-11T04:18:39.491Z,0.40
2019-01-11T04:21:09.518Z,0.40
2019-01-11T04:23:39.510Z,0.40
2019-01-11T04:26:09.477Z,0.30
2019-01-11T04:28:39.497Z,0.30
2019-01-11T04:31:09.695Z,0.30
2019-01-11T04:33:40.199Z,0.40
2019-01-11T04:36:10.344Z,0.30
2019-01-11T04:38:40.665Z,0.40
2019-01-11T04:41:10.764Z,0.30
2019-01-11T04:43:40.881Z,0.40
2019-01-11T04:46:11.063Z,0.40
2019-01-11T04:48:42.444Z,0.40
2019-01-11T04:51:12.494Z,0.40
2019-01-11T04:53:42.519Z,0.50
2019-01-11T04:56:12.756Z,0.50
2019-01-11T04:58:43.150Z,0.40
2019-01-11T05:01:13.194Z,0.50
2019-01-11T05:03:43.074Z,0.50
2019-01-11T05:06:13.082Z,0.50
2019-01-11T05:08:43.031Z,0.50
2019-01-11T05:11:12.933Z,0.40
2019-01-11T05:13:45.825Z,0.40
2019-01-11T05:16:15.813Z,0.40
2019-01-11T05:18:45.918Z,0.40
2019-01-11T05:21:15.902Z,0.40
2019-01-11T05:23:46.083Z,0.40
2019-01-11T05:26:16.188Z,0.30
2019-01-11T05:28:46.313Z,0.40
2019-01-11T05:31:16.156Z,0.40
2019-01-11T05:33:46.173Z,0.30
2019-01-11T05:36:16.626Z,0.30
2019-01-11T05:38:46.573Z,0.30
2019-01-11T05:41:16.717Z,0.30
2019-01-11T05:43:46.858Z,0.30
2019-01-11T05:46:16.873Z,0.30
2019-01-11T05:48:46.767Z,0.30
2019-01-11T05:51:16.813Z,0.30
2019-01-11T05:53:46.708Z,0.30
2019-01-11T05:56:18.751Z,0.30
2019-01-11T05:58:54.960Z,0.30
2019-01-11T06:01:25.059Z,0.30
2019-01-11T06:03:58.878Z,0.30
2019-01-11T06:06:48.676Z,0.30
2019-01-11T06:09:18.559Z,0.30
2019-01-11T06:11:48.515Z,0.30
2019-01-11T06:14:18.420Z,0.30
2019-01-11T06:16:48.353Z,0.20
2019-01-11T06:19:18.278Z,0.20
2019-01-11T06:21:48.286Z,0.30
2019-01-11T06:24:18.294Z,0.30
2019-01-11T06:26:48.516Z,0.30
2019-01-11T06:29:18.356Z,0.30
2019-01-11T06:31:48.669Z,0.40
2019-01-11T06:34:18.706Z,0.30
2019-01-11T06:36:49.178Z,0.40
2019-01-11T06:39:19.567Z,0.40
2019-01-11T06:41:57.300Z,0.30
2019-01-11T06:44:28.741Z,0.40
2019-01-11T06:47:27.454Z,0.40
2019-01-11T06:50:03.962Z,0.30
2019-01-11T06:52:35.104Z,0.30
2019-01-11T06:55:05.843Z,0.40
2019-01-11T06:57:35.856Z,0.40
2019-01-11T07:00:11.506Z,0.40
2019-01-11T07:02:41.930Z,0.40
2019-01-11T07:05:12.420Z,0.40
2019-01-11T07:07:42.938Z,0.40
2019-01-11T07:10:16.306Z,0.40
2019-01-11T07:12:46.592Z,0.40
2019-01-11T07:15:16.784Z,0.40
2019-01-11T07:17:46.841Z,0.40
2019-01-11T07:20:17.439Z,0.50
2019-01-11T07:22:47.612Z,0.50
2019-01-11T07:25:18.184Z,0.50
2019-01-11T07:27:53.782Z,0.50
2019-01-11T07:30:27.098Z,0.50
2019-01-11T07:32:57.183Z,0.50
2019-01-11T07:35:38.975Z,0.50
2019-01-11T07:38:08.969Z,0.50
2019-01-11T07:40:38.934Z,0.40
2019-01-11T07:43:10.968Z,0.40
2019-01-11T07:45:46.582Z,0.40
2019-01-11T07:48:24.543Z,0.40
2019-01-11T07:50:55.240Z,0.50
2019-01-11T07:53:25.356Z,0.50
2019-01-11T07:55:55.725Z,0.50
2019-01-11T07:58:26.358Z,0.50
2019-01-11T08:01:02.776Z,0.50
2019-01-11T08:03:33.052Z,0.50
2019-01-11T08:06:04.168Z,0.40
2019-01-11T08:08:34.238Z,0.40
2019-01-11T08:11:13.595Z,0.40
2019-01-11T08:13:43.712Z,0.50
2019-01-11T08:16:23.419Z,0.50
2019-01-11T08:18:59.899Z,0.60
2019-01-11T08:21:32.233Z,0.60
2019-01-11T08:24:24.211Z,0.50
2019-01-11T08:26:40.032Z,0.50
2019-01-11T08:29:33.366Z,0.40
2019-01-11T08:32:03.585Z,0.40
2019-01-11T08:34:33.618Z,0.30
2019-01-11T08:37:03.698Z,0.20
2019-01-11T08:39:33.553Z,0.30
2019-01-11T08:42:03.424Z,0.40
2019-01-11T08:44:33.420Z,0.50
2019-01-11T08:47:03.377Z,0.60
2019-01-11T08:49:33.475Z,0.50
2019-01-11T08:52:03.619Z,0.60
2019-01-11T08:54:33.642Z,0.70
2019-01-11T08:57:04.433Z,0.80
2019-01-11T08:59:34.438Z,0.80
2019-01-11T09:02:04.272Z,0.80
2019-01-11T09:04:34.633Z,0.80
2019-01-11T09:07:04.632Z,0.90
2019-01-11T09:09:34.524Z,0.90
2019-01-11T09:12:04.689Z,0.80
2019-01-11T09:14:47.398Z,0.80
2019-01-11T09:17:18.210Z,0.90
2019-01-11T09:19:48.364Z,0.90
2019-01-11T09:22:18.345Z,1.00
2019-01-11T09:24:48.504Z,1.00
2019-01-11T09:27:18.764Z,1.00
2019-01-11T09:29:49.106Z,1.10
2019-01-11T09:32:19.200Z,1.10
2019-01-11T09:34:49.193Z,1.20
2019-01-11T09:37:19.339Z,1.30
2019-01-11T09:39:49.531Z,1.10
2019-01-11T09:42:19.628Z,1.10
2019-01-11T09:44:49.779Z,1.10
2019-01-11T09:47:19.752Z,1.10
2019-01-11T09:49:49.778Z,1.10
2019-01-11T09:52:19.840Z,1.10
2019-01-11T09:54:50.225Z,1.10
2019-01-11T09:57:22.204Z,1.10
2019-01-11T09:59:52.136Z,1.20
2019-01-11T10:02:46.892Z,1.10
2019-01-11T10:05:16.956Z,1.20
2019-01-11T10:07:46.848Z,1.20
2019-01-11T10:10:17.035Z,1.20
2019-01-11T10:12:47.951Z,1.30
2019-01-11T10:15:18.322Z,1.30
2019-01-11T10:17:49.846Z,1.40
2019-01-11T10:20:21.975Z,1.20
2019-01-11T10:22:52.089Z,1.10
2019-01-11T10:25:22.604Z,1.20
2019-01-11T10:27:52.769Z,1.30
2019-01-11T10:30:23.231Z,1.20
2019-01-11T10:32:53.536Z,1.40
2019-01-11T10:35:23.935Z,1.50
2019-01-11T10:37:53.920Z,1.50
2019-01-11T10:40:23.891Z,1.60
2019-01-11T10:43:09.177Z,1.60
2019-01-11T10:45:39.173Z,1.60
2019-01-11T10:48:09.227Z,1.50
2019-01-11T10:50:39.069Z,1.70
2019-01-11T10:53:09.536Z,1.70
2019-01-11T10:55:39.525Z,1.50
2019-01-11T10:58:09.299Z,1.40
2019-01-11T11:00:39.272Z,1.40
2019-01-11T11:03:09.519Z,1.50
2019-01-11T11:05:39.515Z,1.60
2019-01-11T11:08:09.640Z,1.50
2019-01-11T11:10:39.649Z,1.50
2019-01-11T11:13:09.772Z,1.60
2019-01-11T11:15:47.646Z,1.50
2019-01-11T11:18:17.947Z,1.50
2019-01-11T11:20:48.052Z,1.50
2019-01-11T11:23:22.759Z,1.70
2019-01-11T11:25:54.139Z,1.60
2019-01-11T11:28:29.823Z,1.60
2019-01-11T11:31:03.523Z,1.70
2019-01-11T11:33:33.513Z,1.60
2019-01-11T11:36:03.662Z,1.50
2019-01-11T11:38:33.544Z,1.60
2019-01-11T11:41:03.771Z,1.60
2019-01-11T11:43:33.955Z,1.60
2019-01-11T11:46:04.719Z,1.80
2019-01-11T11:48:35.131Z,1.80
2019-01-11T11:51:05.671Z,1.60
2019-01-11T11:53:35.974Z,1.60
2019-01-11T11:56:05.991Z,1.70
2019-01-11T11:58:36.195Z,1.80
2019-01-11T12:01:07.462Z,1.80
2019-01-11T12:03:37.507Z,1.80
2019-01-11T12:06:35.028Z,1.90
2019-01-11T12:09:08.867Z,1.80
2019-01-11T12:11:38.879Z,1.80
2019-01-11T12:14:15.928Z,1.90
2019-01-11T12:16:45.998Z,1.80
2019-01-11T12:19:19.283Z,1.70
2019-01-11T12:21:50.883Z,1.70
2019-01-11T12:24:22.141Z,1.70
2019-01-11T12:26:55.185Z,1.70
2019-01-11T12:29:29.834Z,1.50
2019-01-11T12:32:07.601Z,1.50
2019-01-11T12:34:40.640Z,1.60
2019-01-11T12:37:10.858Z,1.60
2019-01-11T12:39:46.738Z,1.60
2019-01-11T12:42:20.240Z,1.50
2019-01-11T12:44:51.920Z,1.50
2019-01-11T12:47:22.414Z,1.50
2019-01-11T12:49:53.643Z,1.50
2019-01-11T12:52:25.136Z,1.50
2019-01-11T12:54:56.370Z,1.60
2019-01-11T12:57:27.449Z,1.60
2019-01-11T12:59:58.415Z,1.70
2019-01-11T13:02:28.821Z,1.70
2019-01-11T13:04:59.320Z,1.50
2019-01-11T13:07:31.554Z,1.50
2019-01-11T13:10:05.276Z,1.60
2019-01-11T13:12:35.785Z,1.50
2019-01-11T13:15:09.426Z,1.50
2019-01-11T13:17:39.920Z,1.50
2019-01-11T13:20:12.766Z,1.40
2019-01-11T13:22:43.195Z,1.40
2019-01-11T13:25:13.320Z,1.40
2019-01-11T13:27:43.721Z,1.50
2019-01-11T13:30:15.835Z,1.40
2019-01-11T13:32:46.013Z,1.20
2019-01-11T13:35:16.839Z,1.20
2019-01-11T13:37:47.066Z,1.20
2019-01-11T13:40:24.866Z,1.20
2019-01-11T13:42:55.308Z,1.20
2019-01-11T13:45:26.151Z,1.20
2019-01-11T13:47:56.341Z,1.20
2019-01-11T13:50:44.267Z,1.20
2019-01-11T13:53:17.207Z,1.30
2019-01-11T13:55:47.415Z,1.30
2019-01-11T13:58:17.541Z,1.30
2019-01-11T14:00:47.728Z,1.10
2019-01-11T14:03:17.674Z,1.00
2019-01-11T14:05:48.243Z,1.10
2019-01-11T14:08:18.536Z,1.10
2019-01-11T14:10:48.429Z,1.10
2019-01-11T14:13:18.543Z,1.10
2019-01-11T14:15:48.711Z,1.00
2019-01-11T14:18:18.648Z,1.10
2019-01-11T14:20:48.586Z,1.10
2019-01-11T14:23:18.598Z,1.20
2019-01-11T14:25:48.670Z,1.20
2019-01-11T14:28:18.554Z,1.30
2019-01-11T14:30:48.439Z,1.30
2019-01-11T14:33:18.446Z,1.20
2019-01-11T14:35:48.540Z,1.20
2019-01-11T14:38:20.410Z,1.20
2019-01-11T14:40:50.434Z,1.30
2019-01-11T14:43:20.523Z,1.30
2019-01-11T14:45:50.511Z,1.30
2019-01-11T14:48:20.534Z,1.30
2019-01-11T14:50:50.829Z,1.30
2019-01-11T14:53:20.917Z,1.30
2019-01-11T14:55:56.180Z,1.40
2019-01-11T14:58:28.580Z,1.40
2019-01-11T15:00:54.798Z,1.40
2019-01-11T15:03:24.718Z,1.40
2019-01-11T15:05:54.667Z,1.40
2019-01-11T15:08:24.687Z,1.40
2019-01-11T15:10:54.493Z,1.40
2019-01-11T15:13:24.375Z,1.30
2019-01-11T15:15:54.484Z,1.30
2019-01-11T15:18:24.614Z,1.10
2019-01-11T15:20:54.641Z,1.10
2019-01-11T15:23:24.746Z,1.10
2019-01-11T15:25:55.733Z,1.20
2019-01-11T15:28:25.752Z,1.10
2019-01-11T15:30:55.886Z,1.10
2019-01-11T15:33:26.017Z,1.20
2019-01-11T15:35:57.231Z,1.20
2019-01-11T15:38:27.328Z,1.10
2019-01-11T15:40:57.262Z,1.10
2019-01-11T15:43:27.327Z,1.20
2019-01-11T15:46:06.366Z,1.10
2019-01-11T15:48:54.496Z,1.20
2019-01-11T15:51:28.215Z,1.20
2019-01-11T15:53:59.421Z,1.20
2019-01-11T15:56:29.551Z,1.10
2019-01-11T15:59:00.600Z,1.10
2019-01-11T16:01:30.881Z,1.10
2019-01-11T16:04:06.527Z,1.00
2019-01-11T16:06:39.323Z,1.00
2019-01-11T16:10:03.741Z,1.00
2019-01-11T16:13:15.673Z,0.90
2019-01-11T16:16:36.362Z,0.90
2019-01-11T16:19:06.495Z,0.80
2019-01-11T16:21:36.507Z,0.80
2019-01-11T16:24:06.390Z,0.90
2019-01-11T16:26:36.624Z,0.80
2019-01-11T16:29:06.823Z,0.90
2019-01-11T16:31:37.070Z,0.90
2019-01-11T16:34:09.798Z,0.90
2019-01-11T16:36:40.166Z,0.90
2019-01-11T16:39:11.007Z,0.90
2019-01-11T16:41:41.598Z,0.90
2019-01-11T16:44:12.077Z,0.80
2019-01-11T16:46:41.984Z,0.80
2019-01-11T16:49:12.798Z,0.90
2019-01-11T16:51:42.704Z,0.90
2019-01-11T16:54:12.772Z,0.90
2019-01-11T16:56:42.964Z,0.90
2019-01-11T16:59:12.921Z,0.90
2019-01-11T17:01:42.858Z,0.90
2019-01-11T17:04:14.951Z,0.90
2019-01-11T17:06:48.505Z,0.90
2019-01-11T17:09:18.995Z,0.90
2019-01-11T17:11:51.659Z,0.90
2019-01-11T17:14:22.007Z,0.90
2019-01-11T17:16:51.999Z,0.90
2019-01-11T17:19:22.143Z,1.00
2019-01-11T17:21:52.089Z,1.00
2019-01-11T17:24:26.182Z,1.00
2019-01-11T17:26:56.468Z,1.10
2019-01-11T17:29:26.544Z,1.00
2019-01-11T17:31:57.162Z,1.00
2019-01-11T17:34:59.137Z,0.90
2019-01-11T17:37:30.741Z,1.00
2019-01-11T17:40:00.874Z,1.00
2019-01-11T17:42:31.104Z,1.00
2019-01-11T17:45:01.229Z,1.00
2019-01-11T17:47:33.119Z,0.90
2019-01-11T17:50:06.368Z,0.90
2019-01-11T17:52:36.641Z,0.90
2019-01-11T17:55:07.083Z,1.00
2019-01-11T17:57:37.414Z,1.00
2019-01-11T18:00:16.954Z,1.00
2019-01-11T18:02:47.758Z,1.00
2019-01-11T18:05:19.213Z,0.90
2019-01-11T18:07:50.224Z,0.90
2019-01-11T18:10:20.482Z,0.90
2019-01-11T18:12:56.846Z,1.00
2019-01-11T18:15:26.903Z,0.90
2019-01-11T18:17:57.607Z,0.90
2019-01-11T18:20:28.998Z,1.00
2019-01-11T18:22:59.104Z,1.00
2019-01-11T18:25:33.007Z,1.00
2019-01-11T18:28:03.369Z,1.00
2019-01-11T18:30:33.730Z,1.00
2019-01-11T18:33:04.297Z,1.00
2019-01-11T18:35:34.580Z,1.00
2019-01-11T18:38:06.026Z,1.10
2019-01-11T18:40:36.229Z,1.10
2019-01-11T18:43:06.615Z,1.10
2019-01-11T18:45:37.654Z,1.10
2019-01-11T18:48:53.390Z,1.10
2019-01-11T18:51:26.239Z,1.10
2019-01-11T18:53:56.621Z,1.20
2019-01-11T18:56:28.118Z,1.20
2019-01-11T18:58:59.280Z,1.20
2019-01-11T19:01:29.641Z,1.20
2019-01-11T19:03:59.703Z,1.10
2019-01-11T19:06:30.090Z,1.20
2019-01-11T19:09:00.292Z,1.20
2019-01-11T19:11:37.983Z,1.20
2019-01-11T19:14:31.599Z,1.20
2019-01-11T19:17:04.547Z,1.20
2019-01-11T19:19:56.025Z,1.20
2019-01-11T19:22:45.912Z,1.30
2019-01-11T19:25:46.878Z,1.30
2019-01-11T19:28:23.338Z,1.30
2019-01-11T19:31:01.794Z,1.30
2019-01-11T19:33:31.931Z,1.30
2019-01-11T19:36:07.123Z,1.30
2019-01-11T19:38:40.198Z,1.30
2019-01-11T19:41:16.552Z,1.30
2019-01-11T19:43:52.065Z,1.40
2019-01-11T19:46:22.045Z,1.40
2019-01-11T19:48:59.935Z,1.40
2019-01-11T19:52:10.709Z,1.50
2019-01-11T19:55:46.122Z,1.50
2019-01-11T20:02:54.950Z,1.50
2019-01-11T20:05:44.947Z,1.50
2019-01-11T20:08:35.252Z,1.50
2019-01-11T20:11:05.754Z,1.50
2019-01-11T20:13:37.833Z,1.50
2019-01-11T20:16:11.005Z,1.50
2019-01-11T20:19:04.861Z,1.50
2019-01-11T20:21:40.627Z,1.50
2019-01-11T20:25:31.516Z,1.50
2019-01-11T20:28:15.390Z,1.50
2019-01-11T20:35:02.312Z,1.40
2019-01-11T20:37:33.547Z,1.50
2019-01-11T20:40:09.842Z,1.50
2019-01-11T20:42:46.745Z,1.60
2019-01-11T20:45:23.499Z,1.60
2019-01-11T20:47:55.815Z,1.60
2019-01-11T20:50:26.721Z,1.60
2019-01-11T20:53:00.011Z,1.60
2019-01-11T20:55:31.440Z,1.60
2019-01-11T20:58:03.492Z,1.60
2019-01-11T21:00:36.021Z,1.60
2019-01-11T21:03:09.764Z,1.60
2019-01-11T21:05:53.996Z,1.60
2019-01-11T21:10:23.256Z,1.70
2019-01-11T21:11:32.330Z,1.70
2019-01-11T21:14:14.601Z,1.80
2019-01-11T21:16:46.828Z,1.80
2019-01-11T21:19:20.095Z,1.90
2019-01-11T21:21:59.753Z,1.90
2019-01-11T21:24:39.304Z,2.00
2019-01-11T21:27:10.629Z,2.00
2019-01-11T21:29:56.179Z,1.80
2019-01-11T21:49:56.345Z,2.10
2019-01-11T21:56:49.850Z,1.90
2019-01-11T21:59:37.886Z,1.80
2019-01-11T22:02:33.344Z,1.60
2019-01-11T22:05:39.979Z,1.70
2019-01-11T22:09:15.718Z,1.70
2019-01-11T22:11:57.632Z,1.80
2019-01-11T22:15:46.248Z,1.90
2019-01-11T22:24:09.994Z,1.80
2019-01-11T22:27:48.909Z,1.80
2019-01-11T22:32:01.641Z,1.80
2019-01-11T22:53:37.870Z,1.70
2019-01-11T22:56:09.123Z,1.70
2019-01-11T22:58:42.155Z,1.90
2019-01-11T23:01:52.670Z,1.90
2019-01-11T23:04:28.342Z,2.00
2019-01-11T23:07:38.417Z,2.00
2019-01-11T23:11:11.159Z,2.00
2019-01-11T23:13:43.711Z,2.10
2019-01-11T23:16:27.338Z,2.20
2019-01-11T23:18:58.513Z,2.10
2019-01-11T23:21:31.248Z,2.20
2019-01-11T23:24:21.205Z,2.20
2019-01-11T23:27:13.300Z,2.20
2019-01-11T23:33:15.014Z,2.30
2019-01-11T23:36:04.829Z,2.30
2019-01-11T23:38:49.938Z,2.30
2019-01-11T23:41:39.528Z,2.40
2019-01-11T23:44:29.281Z,2.40
2019-01-11T23:46:59.708Z,2.40
2019-01-11T23:49:30.506Z,2.40
2019-01-11T23:52:00.498Z,2.40
2019-01-11T23:54:50.189Z,2.30
2019-01-11T23:57:20.165Z,2.30
